createdAt,value
2018-09-01T00:01:36.993Z,97.00
2018-09-01T00:04:11.187Z,96.70
2018-09-01T00:06:45.389Z,96.70
2018-09-01T00:09:19.723Z,96.70
2018-09-01T00:11:53.874Z,96.80
2018-09-01T00:14:28.070Z,96.60
2018-09-01T00:17:02.606Z,96.60
2018-09-01T00:19:36.726Z,96.90
2018-09-01T00:22:11.149Z,96.60
2018-09-01T00:24:45.410Z,97.00
2018-09-01T00:27:20.001Z,97.40
2018-09-01T00:29:54.146Z,96.80
2018-09-01T00:32:28.402Z,96.80
2018-09-01T00:35:02.678Z,96.70
2018-09-01T00:37:42.409Z,96.90
2018-09-01T00:40:16.797Z,97.00
2018-09-01T00:42:50.991Z,97.10
2018-09-01T00:45:25.274Z,97.00
2018-09-01T00:47:59.626Z,96.90
2018-09-01T00:50:33.886Z,96.70
2018-09-01T00:53:08.331Z,96.60
2018-09-01T00:55:42.540Z,97.00
2018-09-01T00:58:16.879Z,96.80
2018-09-01T01:00:51.038Z,97.00
2018-09-01T01:03:25.382Z,97.20
2018-09-01T01:05:59.530Z,97.40
2018-09-01T01:08:33.937Z,97.10
2018-09-01T01:11:08.189Z,97.40
2018-09-01T01:13:42.462Z,97.30
2018-09-01T01:16:16.974Z,97.90
2018-09-01T01:18:51.222Z,97.30
2018-09-01T01:21:25.595Z,97.20
2018-09-01T01:23:59.792Z,97.30
2018-09-01T01:26:34.012Z,97.20
2018-09-01T01:29:08.399Z,97.30
2018-09-01T01:31:42.874Z,97.60
2018-09-01T01:34:17.206Z,97.60
2018-09-01T01:36:51.439Z,97.90
2018-09-01T01:39:25.734Z,98.30
2018-09-01T01:42:00.028Z,98.40
2018-09-01T01:44:34.347Z,98.60
2018-09-01T01:47:08.627Z,98.90
2018-09-01T01:49:42.976Z,98.80
2018-09-01T01:52:17.154Z,98.90
2018-09-01T01:54:51.481Z,99.20
2018-09-01T01:57:25.906Z,99.70
2018-09-01T02:00:00.094Z,99.70
2018-09-01T02:02:34.363Z,99.30
2018-09-01T02:05:10.054Z,99.50
2018-09-01T02:07:44.668Z,99.70
2018-09-01T02:10:18.977Z,99.30
2018-09-01T02:12:53.238Z,98.90
2018-09-01T02:15:27.442Z,98.60
2018-09-01T02:18:01.695Z,98.40
2018-09-01T02:20:35.930Z,98.20
2018-09-01T02:23:10.170Z,98.50
2018-09-01T02:25:45.351Z,98.80
2018-09-01T02:28:19.702Z,98.70
2018-09-01T02:30:53.986Z,98.80
2018-09-01T02:33:28.338Z,99.70
2018-09-01T02:36:02.552Z,99.50
2018-09-01T02:38:36.890Z,99.10
2018-09-01T02:41:11.229Z,98.70
2018-09-01T02:43:45.397Z,98.70
2018-09-01T02:46:19.576Z,98.80
2018-09-01T02:48:53.870Z,98.70
2018-09-01T02:51:28.119Z,98.40
2018-09-01T02:54:02.391Z,98.20
2018-09-01T02:56:36.670Z,98.70
2018-09-01T02:59:10.886Z,98.60
2018-09-01T03:01:45.059Z,98.80
2018-09-01T03:04:19.410Z,98.60
2018-09-01T03:06:56.033Z,98.80
2018-09-01T03:09:30.289Z,98.60
2018-09-01T03:12:04.687Z,99.30
2018-09-01T03:14:39.055Z,99.00
2018-09-01T03:17:13.572Z,99.30
2018-09-01T03:19:47.848Z,99.50
2018-09-01T03:22:23.081Z,99.50
2018-09-01T03:24:57.379Z,99.10
2018-09-01T03:27:31.577Z,98.90
2018-09-01T03:30:06.062Z,99.10
2018-09-01T03:32:40.191Z,98.60
2018-09-01T03:35:14.606Z,98.90
2018-09-01T03:37:48.951Z,98.90
2018-09-01T03:40:23.257Z,98.70
2018-09-01T03:42:57.651Z,99.10
2018-09-01T03:45:31.946Z,98.80
2018-09-01T03:48:06.081Z,98.50
2018-09-01T03:50:40.467Z,98.50
2018-09-01T03:53:14.769Z,98.50
2018-09-01T03:55:48.952Z,98.50
2018-09-01T03:58:23.301Z,98.40
2018-09-01T04:00:57.566Z,98.20
2018-09-01T04:03:31.711Z,98.60
2018-09-01T04:06:06.152Z,98.90
2018-09-01T04:08:40.393Z,98.50
2018-09-01T04:11:14.669Z,99.10
2018-09-01T04:13:48.928Z,99.40
2018-09-01T04:16:23.253Z,99.50
2018-09-01T04:18:57.602Z,99.40
2018-09-01T04:21:32.009Z,99.40
2018-09-01T04:24:06.098Z,98.90
2018-09-01T04:26:40.430Z,98.90
2018-09-01T04:29:15.122Z,99.10
2018-09-01T04:31:49.460Z,99.20
2018-09-01T04:34:23.758Z,99.40
2018-09-01T04:36:57.914Z,99.40
2018-09-01T04:39:32.195Z,99.90
2018-09-01T04:42:06.474Z,99.90
2018-09-01T04:44:40.770Z,99.90
2018-09-01T04:47:15.122Z,99.70
2018-09-01T04:49:49.366Z,99.90
2018-09-01T04:52:23.657Z,99.90
2018-09-01T04:54:58.055Z,99.90
2018-09-01T04:57:32.334Z,99.90
2018-09-01T05:00:06.818Z,99.90
2018-09-01T05:02:41.055Z,99.90
2018-09-01T05:05:15.216Z,99.90
2018-09-01T05:07:49.553Z,99.90
2018-09-01T05:10:23.911Z,99.90
2018-09-01T05:12:58.217Z,99.90
2018-09-01T05:15:32.441Z,99.90
2018-09-01T05:18:06.821Z,99.90
2018-09-01T05:20:41.126Z,99.90
2018-09-01T05:23:15.314Z,99.90
2018-09-01T05:25:49.712Z,99.90
2018-09-01T05:28:23.974Z,99.90
2018-09-01T05:30:58.238Z,99.90
2018-09-01T05:33:32.465Z,99.90
2018-09-01T05:36:06.821Z,99.90
2018-09-01T05:38:41.115Z,99.90
2018-09-01T05:41:15.410Z,99.90
2018-09-01T05:43:49.870Z,99.90
2018-09-01T05:46:23.954Z,99.90
2018-09-01T05:48:58.234Z,99.90
2018-09-01T05:51:32.461Z,99.90
2018-09-01T05:54:06.701Z,99.90
2018-09-01T05:56:40.962Z,99.90
2018-09-01T05:59:15.237Z,99.90
2018-09-01T06:01:49.578Z,99.90
2018-09-01T06:04:23.930Z,99.90
2018-09-01T06:06:58.285Z,99.90
2018-09-01T06:09:32.530Z,99.70
2018-09-01T06:12:06.827Z,99.60
2018-09-01T06:14:41.118Z,99.80
2018-09-01T06:17:15.350Z,99.50
2018-09-01T06:19:49.623Z,99.40
2018-09-01T06:22:24.042Z,99.50
2018-09-01T06:24:58.440Z,99.30
2018-09-01T06:27:35.388Z,99.40
2018-09-01T06:30:13.917Z,99.20
2018-09-01T06:32:48.231Z,99.60
2018-09-01T06:35:22.648Z,99.30
2018-09-01T06:37:56.869Z,99.20
2018-09-01T06:40:31.278Z,99.60
2018-09-01T06:43:05.630Z,99.50
2018-09-01T06:45:39.877Z,99.10
2018-09-01T06:48:14.182Z,99.10
2018-09-01T06:50:48.441Z,98.80
2018-09-01T06:53:22.673Z,98.40
2018-09-01T06:55:57.104Z,98.60
2018-09-01T06:58:31.484Z,98.30
2018-09-01T07:01:05.825Z,98.40
2018-09-01T07:03:40.137Z,98.10
2018-09-01T07:06:14.427Z,97.90
2018-09-01T07:08:48.659Z,97.80
2018-09-01T07:11:22.942Z,97.40
2018-09-01T07:13:57.215Z,97.50
2018-09-01T07:16:31.682Z,97.40
2018-09-01T07:19:05.934Z,97.40
2018-09-01T07:21:40.173Z,97.10
2018-09-01T07:24:14.478Z,97.40
2018-09-01T07:26:48.773Z,97.30
2018-09-01T07:29:23.094Z,97.10
2018-09-01T07:31:57.502Z,97.10
2018-09-01T07:34:31.936Z,97.30
2018-09-01T07:37:06.570Z,96.90
2018-09-01T07:39:40.894Z,96.70
2018-09-01T07:42:15.198Z,96.30
2018-09-01T07:44:49.502Z,96.70
2018-09-01T07:47:23.730Z,96.60
2018-09-01T07:49:58.076Z,97.20
2018-09-01T07:52:32.182Z,96.70
2018-09-01T07:55:06.806Z,96.40
2018-09-01T07:57:41.326Z,96.50
2018-09-01T08:00:15.615Z,96.80
2018-09-01T08:02:49.896Z,96.60
2018-09-01T08:05:24.246Z,96.40
2018-09-01T08:07:58.642Z,96.10
2018-09-01T08:10:32.888Z,95.80
2018-09-01T08:13:07.215Z,96.10
2018-09-01T08:15:41.413Z,96.20
2018-09-01T08:18:15.666Z,96.00
2018-09-01T08:20:49.857Z,96.00
2018-09-01T08:23:24.227Z,95.90
2018-09-01T08:25:58.574Z,95.80
2018-09-01T08:28:33.017Z,96.30
2018-09-01T08:31:07.302Z,95.90
2018-09-01T08:33:41.639Z,95.10
2018-09-01T08:36:15.914Z,95.30
2018-09-01T08:38:50.047Z,95.80
2018-09-01T08:41:24.231Z,95.40
2018-09-01T08:43:58.483Z,95.10
2018-09-01T08:46:32.925Z,95.30
2018-09-01T08:49:07.286Z,95.30
2018-09-01T08:51:41.602Z,95.30
2018-09-01T08:54:15.879Z,95.80
2018-09-01T08:56:50.194Z,95.60
2018-09-01T08:59:24.388Z,94.80
2018-09-01T09:01:58.926Z,94.90
2018-09-01T09:04:33.143Z,95.10
2018-09-01T09:07:07.469Z,95.20
2018-09-01T09:09:41.782Z,95.50
2018-09-01T09:12:16.041Z,95.00
2018-09-01T09:14:50.421Z,95.00
2018-09-01T09:17:24.670Z,95.00
2018-09-01T09:19:58.842Z,94.90
2018-09-01T09:22:33.202Z,94.50
2018-09-01T09:25:07.403Z,94.60
2018-09-01T09:27:41.646Z,95.10
2018-09-01T09:30:15.898Z,94.80
2018-09-01T09:32:50.309Z,94.90
2018-09-01T09:35:24.545Z,95.30
2018-09-01T09:37:58.983Z,95.40
2018-09-01T09:40:33.387Z,95.10
2018-09-01T09:43:07.652Z,95.60
2018-09-01T09:45:41.969Z,95.40
2018-09-01T09:48:16.249Z,94.90
2018-09-01T09:50:50.592Z,95.20
2018-09-01T09:53:24.916Z,95.70
2018-09-01T09:55:59.349Z,94.80
2018-09-01T09:58:33.649Z,94.80
2018-09-01T10:01:13.387Z,94.50
2018-09-01T10:03:47.514Z,95.10
2018-09-01T10:06:21.846Z,94.40
2018-09-01T10:08:56.073Z,94.30
2018-09-01T10:11:30.430Z,94.10
2018-09-01T10:14:04.706Z,94.00
2018-09-01T10:16:39.315Z,94.30
2018-09-01T10:19:13.466Z,94.20
2018-09-01T10:21:47.762Z,94.10
2018-09-01T10:24:22.064Z,93.50
2018-09-01T10:26:56.562Z,93.50
2018-09-01T10:29:30.743Z,93.30
2018-09-01T10:32:05.566Z,93.70
2018-09-01T10:34:39.683Z,93.20
2018-09-01T10:37:13.981Z,91.90
2018-09-01T10:39:48.290Z,91.30
2018-09-01T10:42:22.750Z,90.90
2018-09-01T10:44:57.178Z,90.10
2018-09-01T10:47:31.470Z,89.90
2018-09-01T10:50:05.754Z,89.80
2018-09-01T10:52:40.025Z,90.10
2018-09-01T10:55:14.514Z,88.80
2018-09-01T10:57:48.919Z,88.30
2018-09-01T11:00:23.235Z,86.90
2018-09-01T11:02:57.477Z,87.70
2018-09-01T11:05:31.784Z,85.00
2018-09-01T11:08:06.150Z,83.70
2018-09-01T11:10:40.334Z,82.40
2018-09-01T11:13:14.518Z,81.20
2018-09-01T11:15:49.018Z,81.00
2018-09-01T11:18:23.193Z,82.30
2018-09-01T11:20:57.545Z,80.50
2018-09-01T11:23:31.811Z,78.60
2018-09-01T11:26:06.104Z,80.40
2018-09-01T11:28:40.274Z,78.20
2018-09-01T11:31:14.616Z,77.60
2018-09-01T11:33:49.031Z,75.80
2018-09-01T11:36:23.174Z,74.50
2018-09-01T11:38:57.502Z,74.40
2018-09-01T11:41:31.740Z,72.60
2018-09-01T11:44:06.023Z,74.10
2018-09-01T11:46:40.298Z,73.70
2018-09-01T11:49:14.614Z,73.40
2018-09-01T11:51:49.069Z,72.50
2018-09-01T11:54:23.430Z,70.20
2018-09-01T11:56:57.762Z,68.10
2018-09-01T11:59:32.067Z,67.30
2018-09-01T12:02:06.541Z,68.10
2018-09-01T12:04:40.758Z,69.40
2018-09-01T12:07:15.220Z,68.70
2018-09-01T12:09:49.761Z,69.90
2018-09-01T12:12:24.209Z,68.70
2018-09-01T12:14:58.490Z,65.70
2018-09-01T12:17:32.801Z,65.90
2018-09-01T12:20:07.127Z,69.50
2018-09-01T12:22:41.413Z,71.70
2018-09-01T12:25:15.642Z,73.20
2018-09-01T12:27:50.011Z,73.20
2018-09-01T12:30:24.363Z,74.70
2018-09-01T12:32:58.685Z,73.90
2018-09-01T12:35:32.922Z,74.50
2018-09-01T12:38:07.314Z,74.60
2018-09-01T12:40:41.593Z,75.20
2018-09-01T12:43:15.793Z,74.90
2018-09-01T12:45:50.198Z,72.10
2018-09-01T12:48:24.582Z,69.60
2018-09-01T12:50:58.959Z,68.90
2018-09-01T12:53:33.310Z,68.40
2018-09-01T12:56:07.571Z,65.60
2018-09-01T12:58:41.939Z,65.30
2018-09-01T13:01:16.185Z,66.20
2018-09-01T13:03:50.687Z,65.00
2018-09-01T13:06:25.002Z,64.40
2018-09-01T13:08:59.337Z,64.70
2018-09-01T13:11:33.702Z,65.80
2018-09-01T13:14:08.066Z,63.90
2018-09-01T13:16:42.239Z,62.10
2018-09-01T13:19:16.642Z,58.30
2018-09-01T13:21:50.902Z,59.60
2018-09-01T13:24:25.175Z,59.20
2018-09-01T13:26:59.297Z,62.40
2018-09-01T13:29:33.565Z,59.90
2018-09-01T13:32:07.951Z,61.20
2018-09-01T13:34:42.175Z,62.60
2018-09-01T13:37:16.497Z,64.40
2018-09-01T13:39:50.885Z,67.40
2018-09-01T13:42:25.211Z,67.00
2018-09-01T13:44:59.497Z,69.00
2018-09-01T13:47:33.810Z,67.60
2018-09-01T13:50:08.270Z,68.00
2018-09-01T13:52:42.607Z,67.40
2018-09-01T13:55:16.906Z,65.80
2018-09-01T13:57:51.168Z,66.90
2018-09-01T14:00:25.618Z,67.60
2018-09-01T14:02:59.966Z,68.60
2018-09-01T14:05:34.125Z,68.30
2018-09-01T14:08:08.473Z,69.00
2018-09-01T14:10:42.867Z,69.80
2018-09-01T14:13:17.144Z,66.70
2018-09-01T14:15:51.483Z,65.80
2018-09-01T14:18:25.742Z,65.50
2018-09-01T14:21:00.072Z,66.40
2018-09-01T14:23:34.243Z,62.70
2018-09-01T14:26:08.496Z,63.00
2018-09-01T14:28:42.839Z,62.30
2018-09-01T14:31:17.138Z,62.00
2018-09-01T14:33:51.419Z,63.00
2018-09-01T14:36:25.862Z,62.80
2018-09-01T14:39:00.083Z,62.70
2018-09-01T14:41:34.609Z,63.50
2018-09-01T14:44:08.798Z,62.00
2018-09-01T14:46:43.042Z,60.20
2018-09-01T14:49:17.242Z,60.90
2018-09-01T14:51:51.451Z,60.60
2018-09-01T14:54:25.776Z,62.60
2018-09-01T14:57:00.058Z,61.00
2018-09-01T14:59:34.374Z,61.50
2018-09-01T15:02:08.694Z,62.80
2018-09-01T15:04:42.958Z,62.50
2018-09-01T15:07:17.258Z,62.50
2018-09-01T15:09:51.638Z,62.10
2018-09-01T15:12:25.979Z,62.10
2018-09-01T15:15:00.151Z,64.10
2018-09-01T15:17:34.439Z,65.30
2018-09-01T15:20:08.769Z,65.20
2018-09-01T15:22:42.973Z,65.90
2018-09-01T15:25:17.257Z,65.70
2018-09-01T15:27:51.558Z,66.30
2018-09-01T15:30:25.692Z,66.40
2018-09-01T15:33:00.002Z,66.80
2018-09-01T15:35:34.316Z,68.00
2018-09-01T15:38:08.623Z,66.90
2018-09-01T15:40:42.893Z,68.00
2018-09-01T15:43:17.089Z,67.80
2018-09-01T15:45:51.446Z,67.20
2018-09-01T15:48:25.751Z,67.40
2018-09-01T15:51:00.079Z,68.60
2018-09-01T15:53:34.382Z,69.00
2018-09-01T15:56:08.737Z,68.90
2018-09-01T15:58:43.127Z,67.80
2018-09-01T16:01:17.350Z,67.70
2018-09-01T16:03:51.691Z,69.10
2018-09-01T16:06:25.930Z,70.30
2018-09-01T16:09:00.047Z,70.40
2018-09-01T16:11:34.365Z,70.50
2018-09-01T16:14:08.645Z,70.30
2018-09-01T16:16:42.796Z,69.30
2018-09-01T16:19:17.027Z,65.10
2018-09-01T16:21:51.240Z,65.70
2018-09-01T16:24:25.661Z,63.60
2018-09-01T16:26:59.982Z,62.80
2018-09-01T16:29:34.221Z,62.30
2018-09-01T16:32:08.657Z,63.50
2018-09-01T16:34:43.008Z,62.90
2018-09-01T16:37:17.218Z,63.30
2018-09-01T16:39:51.555Z,64.20
2018-09-01T16:42:25.978Z,63.10
2018-09-01T16:45:00.319Z,63.10
2018-09-01T16:47:34.581Z,63.40
2018-09-01T16:50:09.006Z,63.80
2018-09-01T16:52:43.193Z,65.30
2018-09-01T16:55:17.566Z,65.10
2018-09-01T16:57:51.822Z,65.30
2018-09-01T17:00:26.085Z,64.90
2018-09-01T17:03:00.402Z,64.90
2018-09-01T17:05:34.656Z,66.10
2018-09-01T17:08:08.919Z,66.20
2018-09-01T17:10:43.148Z,66.30
2018-09-01T17:13:17.677Z,65.50
2018-09-01T17:15:51.968Z,66.10
2018-09-01T17:18:26.190Z,66.80
2018-09-01T17:21:00.568Z,67.20
2018-09-01T17:23:34.731Z,67.70
2018-09-01T17:26:09.006Z,67.70
2018-09-01T17:28:43.440Z,69.50
2018-09-01T17:31:17.733Z,70.30
2018-09-01T17:33:52.046Z,70.00
2018-09-01T17:36:26.314Z,70.90
2018-09-01T17:39:00.839Z,71.30
2018-09-01T17:41:35.030Z,72.00
2018-09-01T17:44:09.322Z,71.90
2018-09-01T17:46:43.681Z,73.20
2018-09-01T17:49:17.904Z,73.60
2018-09-01T17:51:52.132Z,73.40
2018-09-01T17:54:26.396Z,74.80
2018-09-01T17:57:00.731Z,76.10
2018-09-01T17:59:35.069Z,77.10
2018-09-01T18:02:09.751Z,77.60
2018-09-01T18:04:43.873Z,75.80
2018-09-01T18:07:18.213Z,77.10
2018-09-01T18:09:52.500Z,79.10
2018-09-01T18:12:26.798Z,79.00
2018-09-01T18:15:01.122Z,78.00
2018-09-01T18:17:35.274Z,77.70
2018-09-01T18:20:09.579Z,77.80
2018-09-01T18:22:43.864Z,77.40
2018-09-01T18:25:18.180Z,79.40
2018-09-01T18:27:52.580Z,78.90
2018-09-01T18:30:26.789Z,80.00
2018-09-01T18:33:01.062Z,80.00
2018-09-01T18:35:35.262Z,80.90
2018-09-01T18:38:09.445Z,81.30
2018-09-01T18:40:43.761Z,81.20
2018-09-01T18:43:17.946Z,82.60
2018-09-01T18:45:52.246Z,82.60
2018-09-01T18:48:26.618Z,83.00
2018-09-01T18:51:00.913Z,83.60
2018-09-01T18:53:35.309Z,84.20
2018-09-01T18:56:09.618Z,83.00
2018-09-01T18:58:44.035Z,84.70
2018-09-01T19:01:18.335Z,85.20
2018-09-01T19:03:52.503Z,84.70
2018-09-01T19:06:26.825Z,85.10
2018-09-01T19:09:01.217Z,84.00
2018-09-01T19:11:35.838Z,83.40
2018-09-01T19:14:10.117Z,83.10
2018-09-01T19:16:44.143Z,83.50
2018-09-01T19:19:18.377Z,83.70
2018-09-01T19:21:52.668Z,83.10
2018-09-01T19:24:27.047Z,84.20
2018-09-01T19:27:01.494Z,83.80
2018-09-01T19:29:35.811Z,83.00
2018-09-01T19:32:09.986Z,83.10
2018-09-01T19:34:44.234Z,83.40
2018-09-01T19:37:18.535Z,82.70
2018-09-01T19:39:52.823Z,83.50
2018-09-01T19:42:27.022Z,83.50
2018-09-01T19:45:01.537Z,83.80
2018-09-01T19:47:35.886Z,84.00
2018-09-01T19:50:10.224Z,84.00
2018-09-01T19:52:44.411Z,84.30
2018-09-01T19:55:18.613Z,84.10
2018-09-01T19:57:52.875Z,84.40
2018-09-01T20:00:27.235Z,84.60
2018-09-01T20:03:01.486Z,84.60
2018-09-01T20:05:35.647Z,84.90
2018-09-01T20:08:09.989Z,85.40
2018-09-01T20:10:44.391Z,85.00
2018-09-01T20:13:18.646Z,85.20
2018-09-01T20:15:52.894Z,84.80
2018-09-01T20:18:27.175Z,84.80
2018-09-01T20:21:01.557Z,84.60
2018-09-01T20:23:35.718Z,84.20
2018-09-01T20:26:10.111Z,84.20
2018-09-01T20:28:44.314Z,83.60
2018-09-01T20:31:18.713Z,83.30
2018-09-01T20:33:53.031Z,83.00
2018-09-01T20:36:27.385Z,82.60
2018-09-01T20:39:01.619Z,82.40
2018-09-01T20:41:36.050Z,82.70
2018-09-01T20:44:10.243Z,82.10
2018-09-01T20:46:44.543Z,82.20
2018-09-01T20:49:18.851Z,82.40
2018-09-01T20:51:53.065Z,82.40
2018-09-01T20:54:27.274Z,82.60
2018-09-01T20:57:02.115Z,81.90
2018-09-01T20:59:36.327Z,81.60
2018-09-01T21:02:10.742Z,81.70
2018-09-01T21:04:45.259Z,81.70
2018-09-01T21:07:19.502Z,81.50
2018-09-01T21:09:53.804Z,81.60
2018-09-01T21:12:27.986Z,81.70
2018-09-01T21:15:02.278Z,81.70
2018-09-01T21:17:36.521Z,81.70
2018-09-01T21:20:10.863Z,81.30
2018-09-01T21:22:45.279Z,81.50
2018-09-01T21:25:19.523Z,81.90
2018-09-01T21:27:53.705Z,82.20
2018-09-01T21:30:28.002Z,82.10
2018-09-01T21:33:02.257Z,82.40
2018-09-01T21:35:36.615Z,82.00
2018-09-01T21:38:10.916Z,82.60
2018-09-01T21:40:45.174Z,83.10
2018-09-01T21:43:19.313Z,83.00
2018-09-01T21:45:53.593Z,83.20
2018-09-01T21:48:27.997Z,83.20
2018-09-01T21:51:02.582Z,84.00
2018-09-01T21:53:36.925Z,83.90
2018-09-01T21:56:11.280Z,84.40
2018-09-01T21:58:45.579Z,84.30
2018-09-01T22:01:25.270Z,84.80
2018-09-01T22:03:59.450Z,85.10
2018-09-01T22:06:33.715Z,85.00
2018-09-01T22:09:07.902Z,85.50
2018-09-01T22:11:42.290Z,85.90
2018-09-01T22:14:16.405Z,86.20
2018-09-01T22:16:50.686Z,86.40
2018-09-01T22:19:24.961Z,88.00
2018-09-01T22:21:59.330Z,87.00
2018-09-01T22:24:33.521Z,87.30
2018-09-01T22:27:07.842Z,88.00
2018-09-01T22:29:42.187Z,88.00
2018-09-01T22:32:16.342Z,88.10
2018-09-01T22:34:50.640Z,88.20
2018-09-01T22:37:25.082Z,88.30
2018-09-01T22:39:59.419Z,88.80
2018-09-01T22:42:33.757Z,89.30
2018-09-01T22:45:08.190Z,89.60
2018-09-01T22:47:42.562Z,89.40
2018-09-01T22:50:16.845Z,89.60
2018-09-01T22:52:51.165Z,89.90
2018-09-01T22:55:25.456Z,90.00
2018-09-01T22:57:59.701Z,90.10
2018-09-01T23:00:34.003Z,90.30
2018-09-01T23:03:08.230Z,90.30
2018-09-01T23:05:42.470Z,90.30
2018-09-01T23:08:16.889Z,90.30
2018-09-01T23:10:51.278Z,90.60
2018-09-01T23:13:25.455Z,90.60
2018-09-01T23:15:59.754Z,90.70
2018-09-01T23:18:34.114Z,90.80
2018-09-01T23:21:08.306Z,90.90
2018-09-01T23:23:42.594Z,90.90
2018-09-01T23:26:17.050Z,91.00
2018-09-01T23:28:51.394Z,91.20
2018-09-01T23:31:25.881Z,91.30
2018-09-01T23:34:00.064Z,91.40
2018-09-01T23:36:34.227Z,91.50
2018-09-01T23:39:09.363Z,91.60
2018-09-01T23:41:43.603Z,91.60
2018-09-01T23:44:18.005Z,91.60
2018-09-01T23:46:52.300Z,91.70
2018-09-01T23:49:26.614Z,91.80
2018-09-01T23:52:01.161Z,91.90
2018-09-01T23:54:35.309Z,92.00
2018-09-01T23:57:09.629Z,92.30
2018-09-01T23:59:43.793Z,92.20
